Time;durP1;ratioP1;P1;durP2;ratioP2;P2;SDS_P1;SDS_P2;PMS_P1;PMS_P2;Temp;Humidity;BMP_temperature;BMP_pressure;BME280_temperature;BME280_humidity;BME280_pressure;Samples;Min_cycle;Max_cycle;Signal;HPM_P1;HPM_P2
2023/12/10 00:00:56;;;;;;;20.17;5.93;;;;;;;8.33;100.00;99840.53;5109892;28;20081;-36
2023/12/10 00:03:21;;;;;;;18.67;5.10;;;;;;;8.35;100.00;99837.63;5110367;28;20020;-37
2023/12/10 00:05:47;;;;;;;17.65;4.97;;;;;;;8.32;100.00;99836.22;5110075;28;20028;-36
2023/12/10 00:08:12;;;;;;;17.00;4.40;;;;;;;8.35;100.00;99837.63;5100155;28;20024;-36
2023/12/10 00:10:38;;;;;;;22.13;6.38;;;;;;;8.36;100.00;99856.25;5096421;28;20060;-37
2023/12/10 00:13:03;;;;;;;18.77;5.33;;;;;;;8.37;100.00;99836.34;5096664;28;20028;-37
2023/12/10 00:15:29;;;;;;;21.05;5.25;;;;;;;8.31;100.00;99823.81;5095206;28;20531;-36
2023/12/10 00:17:55;;;;;;;21.20;5.13;;;;;;;8.42;100.00;99843.69;5096237;28;20078;-37
2023/12/10 00:20:20;;;;;;;20.95;5.32;;;;;;;8.41;100.00;99842.88;5096195;28;20081;-36
2023/12/10 00:22:46;;;;;;;23.27;5.53;;;;;;;8.45;100.00;99849.44;5096759;28;20031;-37
2023/12/10 00:25:12;;;;;;;20.35;5.00;;;;;;;8.48;100.00;99856.19;5095917;28;20362;-37
2023/12/10 00:27:37;;;;;;;20.37;5.33;;;;;;;8.55;100.00;99858.75;5096586;28;20523;-37
2023/12/10 00:30:04;;;;;;;19.45;5.00;;;;;;;8.58;100.00;99858.25;5096131;28;20476;-37
2023/12/10 00:32:29;;;;;;;19.20;4.95;;;;;;;8.56;100.00;99887.34;5095826;28;20052;-37
2023/12/10 00:34:55;;;;;;;20.17;4.63;;;;;;;8.45;100.00;99848.63;5096075;28;20093;-37
2023/12/10 00:37:20;;;;;;;22.07;5.07;;;;;;;8.55;100.00;99859.59;5096438;28;20020;-37
2023/12/10 00:39:45;;;;;;;19.97;5.80;;;;;;;8.53;100.00;99861.69;5096016;28;20032;-37
2023/12/10 00:42:11;;;;;;;16.43;4.57;;;;;;;8.52;100.00;99871.66;5095640;28;20246;-37
2023/12/10 00:44:37;;;;;;;16.98;4.70;;;;;;;8.49;100.00;99861.38;5095648;28;20020;-36
2023/12/10 00:47:02;;;;;;;17.57;5.00;;;;;;;8.46;100.00;99861.84;5096100;28;20384;-36
2023/12/10 00:49:27;;;;;;;20.87;4.60;;;;;;;8.49;100.00;99866.75;5095798;28;20672;-36
2023/12/10 00:51:53;;;;;;;20.07;5.73;;;;;;;8.46;100.00;99886.09;5095993;28;20494;-36
2023/12/10 00:54:18;;;;;;;16.60;4.77;;;;;;;8.42;100.00;99887.63;5095722;28;20262;-37
2023/12/10 00:56:43;;;;;;;20.93;5.07;;;;;;;8.41;100.00;99896.75;5096387;28;20094;-36
2023/12/10 00:59:09;;;;;;;16.23;4.90;;;;;;;8.39;100.00;99888.09;5095574;28;20024;-37
2023/12/10 01:01:34;;;;;;;15.20;4.27;;;;;;;8.32;100.00;99892.78;5095825;28;20262;-36
2023/12/10 01:04:00;;;;;;;23.67;5.75;;;;;;;8.35;100.00;99903.09;5095477;28;20494;-37
2023/12/10 01:06:25;;;;;;;19.43;4.63;;;;;;;8.32;100.00;99897.34;5095487;28;20448;-36
2023/12/10 01:08:50;;;;;;;16.57;4.53;;;;;;;8.31;100.00;99901.09;5095042;28;20032;-37
2023/12/10 01:11:16;;;;;;;17.47;4.20;;;;;;;8.26;100.00;99905.34;5095435;28;20103;-37
2023/12/10 01:13:41;;;;;;;22.38;5.00;;;;;;;8.24;100.00;99896.66;5095262;28;20024;-36
2023/12/10 01:16:07;;;;;;;23.65;5.28;;;;;;;8.20;100.00;99886.63;5095195;28;20103;-37
2023/12/10 01:18:33;;;;;;;11.40;3.75;;;;;;;8.05;100.00;99879.03;5094637;28;20075;-36
2023/12/10 01:20:58;;;;;;;17.73;4.20;;;;;;;8.19;100.00;99896.56;5094675;28;20032;-36
2023/12/10 01:23:24;;;;;;;17.77;4.22;;;;;;;8.19;100.00;99904.63;5095913;28;20024;-36
2023/12/10 01:25:49;;;;;;;18.42;4.88;;;;;;;8.15;100.00;99895.41;5095165;28;20430;-37
2023/12/10 01:28:15;;;;;;;14.57;3.93;;;;;;;8.21;100.00;99905.22;5094996;28;20020;-36
2023/12/10 01:30:40;;;;;;;14.32;4.10;;;;;;;8.23;100.00;99907.66;5095229;28;20024;-37
2023/12/10 01:33:05;;;;;;;14.77;4.40;;;;;;;8.22;100.00;99911.44;5095432;28;20322;-36
2023/12/10 01:35:31;;;;;;;17.63;4.33;;;;;;;8.16;100.00;99904.31;5094806;28;20384;-37
2023/12/10 01:37:56;;;;;;;17.63;4.70;;;;;;;8.16;100.00;99921.28;5094570;28;20754;-36
2023/12/10 01:40:22;;;;;;;14.80;3.90;;;;;;;8.19;100.00;99928.06;5095654;28;20107;-37
2023/12/10 01:42:48;;;;;;;15.90;4.35;;;;;;;8.19;100.00;99941.53;5095021;28;20513;-37
2023/12/10 01:45:14;;;;;;;18.00;5.38;;;;;;;8.15;100.00;99937.66;5094713;28;20103;-36
2023/12/10 01:47:42;;;;;;;18.67;4.60;;;;;;;8.09;100.00;99944.00;5095004;28;20028;-37
2023/12/10 01:50:15;;;;;;;17.52;4.38;;;;;;;8.07;100.00;99943.44;5094324;28;20031;-37
2023/12/10 01:52:42;;;;;;;19.42;4.78;;;;;;;7.89;100.00;99931.72;5094818;28;20031;-36
2023/12/10 01:55:11;;;;;;;17.20;5.40;;;;;;;7.98;100.00;99948.34;5094251;28;20448;-36
2023/12/10 01:57:37;;;;;;;15.15;3.97;;;;;;;7.92;100.00;99947.41;5094477;28;20028;-36
2023/12/10 02:00:07;;;;;;;13.35;3.88;;;;;;;7.91;100.00;99943.09;5094914;28;20038;-36
2023/12/10 02:02:33;;;;;;;16.63;4.40;;;;;;;7.71;100.00;99921.09;5094916;28;20028;-36
2023/12/10 02:05:04;;;;;;;13.73;4.25;;;;;;;7.77;100.00;99936.31;5094242;28;20024;-36
2023/12/10 02:07:30;;;;;;;16.08;4.68;;;;;;;7.75;100.00;99935.72;5093951;28;20095;-36
2023/12/10 02:09:55;;;;;;;12.47;3.90;;;;;;;7.82;100.00;99939.13;5094256;28;20059;-36
2023/12/10 02:12:21;;;;;;;18.17;4.55;;;;;;;7.80;100.00;99943.91;5094509;28;20379;-36
2023/12/10 02:14:47;;;;;;;;;;;;;;;7.83;100.00;99948.81;5094469;28;20028;-36
2023/12/10 02:17:12;;;;;;;18.20;4.22;;;;;;;7.79;100.00;99952.22;5094046;28;20275;-36
2023/12/10 02:19:37;;;;;;;14.67;4.03;;;;;;;7.78;100.00;99951.41;5094089;28;20032;-36
2023/12/10 02:22:04;;;;;;;17.05;4.20;;;;;;;7.80;100.00;99961.94;5094006;28;20020;-36
2023/12/10 02:24:41;;;;;;;14.27;4.38;;;;;;;7.79;100.00;99965.69;5094234;28;20036;-36
2023/12/10 02:27:07;;;;;;;12.77;3.33;;;;;;;7.79;100.00;99963.81;5093941;28;20024;-36
2023/12/10 02:29:33;;;;;;;15.13;3.65;;;;;;;7.78;100.00;99964.84;5093882;28;20028;-36
2023/12/10 02:31:58;;;;;;;15.68;3.55;;;;;;;7.74;100.00;99961.81;5093604;28;20054;-36
2023/12/10 02:34:23;;;;;;;12.83;4.33;;;;;;;7.64;100.00;99947.31;5094052;28;20020;-36
2023/12/10 02:36:49;;;;;;;16.47;3.87;;;;;;;7.73;100.00;99968.25;5093458;28;20357;-37
2023/12/10 02:39:15;;;;;;;13.93;3.67;;;;;;;7.78;100.00;99966.72;5093700;28;20031;-37
2023/12/10 02:41:40;;;;;;;14.50;4.18;;;;;;;7.76;100.00;99975.06;5094232;28;20032;-36
2023/12/10 02:44:06;;;;;;;11.32;3.65;;;;;;;7.71;100.00;99973.06;5093646;28;20030;-36
2023/12/10 02:46:31;;;;;;;14.23;3.93;;;;;;;7.82;100.00;99981.38;5093594;28;20032;-36
2023/12/10 02:48:56;;;;;;;12.83;3.33;;;;;;;7.86;100.00;99969.09;5093665;28;20123;-36
2023/12/10 02:51:22;;;;;;;13.00;3.37;;;;;;;7.86;100.00;99986.06;5093939;28;20024;-37
2023/12/10 02:53:47;;;;;;;12.30;3.53;;;;;;;7.77;100.00;99982.06;5093668;28;20045;-36
2023/12/10 02:56:12;;;;;;;13.63;4.07;;;;;;;7.91;100.00;99999.63;5093392;28;20083;-36
2023/12/10 02:58:38;;;;;;;13.33;3.90;;;;;;;7.91;100.00;99999.63;5093836;28;20040;-36
2023/12/10 03:01:04;;;;;;;11.82;3.38;;;;;;;7.91;100.00;99999.63;5094369;28;20516;-36
2023/12/10 03:03:29;;;;;;;15.52;4.22;;;;;;;7.93;100.00;99996.69;5094075;28;20062;-36
2023/12/10 03:05:56;;;;;;;16.60;3.83;;;;;;;7.87;100.00;99974.22;5093830;28;20456;-37
2023/12/10 03:08:21;;;;;;;15.43;3.67;;;;;;;7.93;100.00;99999.38;5094273;28;20425;-36
2023/12/10 03:10:46;;;;;;;14.63;3.57;;;;;;;7.89;100.00;99985.56;5093477;28;20028;-37
2023/12/10 03:13:12;;;;;;;19.03;4.23;;;;;;;7.92;100.00;99971.66;5093123;28;20047;-36
2023/12/10 03:15:37;;;;;;;16.73;4.57;;;;;;;8.06;100.00;99980.31;5093946;28;20024;-36
2023/12/10 03:18:03;;;;;;;15.53;3.73;;;;;;;7.97;100.00;99979.03;5093405;28;20738;-37
2023/12/10 03:20:28;;;;;;;11.50;3.17;;;;;;;8.11;100.00;99998.44;5093377;28;20095;-36
2023/12/10 03:22:53;;;;;;;12.07;3.33;;;;;;;8.13;100.00;99978.28;5093373;28;20028;-37
2023/12/10 03:25:19;;;;;;;13.30;3.77;;;;;;;8.07;100.00;99995.41;5093418;28;20631;-37
2023/12/10 03:27:44;;;;;;;14.20;3.57;;;;;;;8.29;100.00;100013.63;5093277;28;20093;-36
2023/12/10 03:30:09;;;;;;;15.20;3.53;;;;;;;8.27;100.00;100012.00;5093905;28;20032;-36
2023/12/10 03:32:35;;;;;;;18.60;5.03;;;;;;;8.35;100.00;100027.00;5093300;28;20250;-37
2023/12/10 03:35:00;;;;;;;15.37;3.37;;;;;;;8.38;100.00;100026.53;5092871;28;20300;-36
2023/12/10 03:37:25;;;;;;;12.27;3.63;;;;;;;8.40;100.00;100032.53;5093714;28;20020;-36
2023/12/10 03:39:51;;;;;;;12.83;3.53;;;;;;;8.40;100.00;100037.09;5093997;28;20782;-37
2023/12/10 03:42:16;;;;;;;14.40;3.60;;;;;;;8.41;100.00;100047.63;5093798;28;20266;-36
2023/12/10 03:44:42;;;;;;;13.50;3.73;;;;;;;8.42;100.00;100049.28;5097543;28;20028;-37
2023/12/10 03:47:07;;;;;;;11.93;3.33;;;;;;;8.37;100.00;100026.78;5096740;28;20028;-36
2023/12/10 03:49:32;;;;;;;15.67;3.50;;;;;;;8.45;100.00;100056.88;5096579;28;20533;-37
2023/12/10 03:51:58;;;;;;;13.00;3.57;;;;;;;8.51;100.00;100042.47;5097399;28;20020;-36
2023/12/10 03:54:23;;;;;;;14.32;3.30;;;;;;;8.50;100.00;100038.13;5096882;28;20028;-37
2023/12/10 03:56:49;;;;;;;12.17;3.30;;;;;;;8.52;100.00;100054.06;5097770;28;20097;-37
2023/12/10 03:59:14;;;;;;;16.30;4.50;;;;;;;8.56;100.00;100070.59;5096690;28;20304;-37
2023/12/10 04:01:43;;;;;;;12.27;3.57;;;;;;;8.52;100.00;100059.44;5097248;28;20361;-37
2023/12/10 04:04:09;;;;;;;13.85;3.67;;;;;;;8.50;100.00;100048.91;5096650;28;20020;-37
2023/12/10 04:06:39;;;;;;;;;;;;;;;8.54;100.00;100056.50;5097023;28;20024;-37
2023/12/10 04:09:04;;;;;;;18.38;3.85;;;;;;;8.44;100.00;100043.63;5096756;28;19912;-44
2023/12/10 04:11:29;;;;;;;13.47;3.23;;;;;;;8.51;100.00;100047.84;5096499;28;20379;-37
2023/12/10 04:13:55;;;;;;;12.50;3.47;;;;;;;8.52;100.00;100060.25;5096976;28;20058;-37
2023/12/10 04:16:30;;;;;;;15.10;3.53;;;;;;;8.50;100.00;100065.09;5096978;28;20027;-37
2023/12/10 04:18:56;;;;;;;14.13;3.55;;;;;;;8.51;100.00;100079.38;5096316;28;20375;-37
2023/12/10 04:21:22;;;;;;;12.23;3.00;;;;;;;8.57;100.00;100083.00;5096391;28;20120;-37
2023/12/10 04:23:48;;;;;;;16.00;3.70;;;;;;;8.49;100.00;100074.22;5095970;28;20055;-37
2023/12/10 04:26:14;;;;;;;14.48;4.25;;;;;;;8.55;100.00;100088.63;5096805;28;20113;-37
2023/12/10 04:28:39;;;;;;;;;;;;;;;8.57;100.00;100091.09;5096338;28;20023;-37
2023/12/10 04:31:06;;;;;;;13.85;3.60;;;;;;;8.60;100.00;100104.09;5096386;28;19915;-37
2023/12/10 04:33:31;;;;;;;14.00;4.30;;;;;;;8.63;100.00;100092.81;5096105;28;20396;-37
2023/12/10 04:35:57;;;;;;;16.90;3.90;;;;;;;8.61;100.00;100122.72;5096057;28;20028;-37
2023/12/10 04:38:22;;;;;;;11.70;3.27;;;;;;;8.52;100.00;100094.47;5096057;28;20425;-37
2023/12/10 04:40:48;;;;;;;12.27;3.00;;;;;;;8.58;100.00;100122.34;5096351;28;20021;-37
2023/12/10 04:43:13;;;;;;;18.43;3.23;;;;;;;8.59;100.00;100129.38;5095627;28;20055;-37
2023/12/10 04:45:38;;;;;;;15.13;3.63;;;;;;;8.59;100.00;100118.59;5095630;28;20024;-37
2023/12/10 04:48:04;;;;;;;11.57;3.20;;;;;;;8.57;100.00;100126.94;5095793;28;20099;-37
2023/12/10 04:50:30;;;;;;;;;;;;;;;8.61;100.00;100122.72;5097061;28;20020;-37
2023/12/10 04:52:56;;;;;;;12.40;3.95;;;;;;;8.51;100.00;100123.31;5095561;28;19915;-37
2023/12/10 04:55:21;;;;;;;13.82;3.40;;;;;;;8.45;100.00;100123.44;5096183;28;20028;-37
2023/12/10 04:57:46;;;;;;;14.53;3.40;;;;;;;8.41;100.00;100120.38;5095684;28;20024;-37
2023/12/10 05:00:12;;;;;;;16.97;4.63;;;;;;;8.60;100.00;100150.72;5095861;28;20027;-37
2023/12/10 05:02:38;;;;;;;13.63;3.53;;;;;;;8.63;100.00;100157.50;5095226;28;20665;-37
2023/12/10 05:05:03;;;;;;;16.50;4.33;;;;;;;8.56;100.00;100129.88;5095723;28;20032;-37
2023/12/10 05:07:28;;;;;;;10.82;3.10;;;;;;;8.61;100.00;100175.81;5096028;28;20028;-37
2023/12/10 05:09:54;;;;;;;12.43;3.30;;;;;;;8.63;100.00;100174.50;5095945;28;20360;-37
2023/12/10 05:12:20;;;;;;;12.70;3.80;;;;;;;8.62;100.00;100174.75;5096204;28;20100;-37
2023/12/10 05:14:45;;;;;;;14.20;3.47;;;;;;;8.66;100.00;100170.53;5094959;28;20062;-37
2023/12/10 05:17:10;;;;;;;11.87;3.83;;;;;;;8.66;100.00;100187.50;5094970;28;20081;-37
2023/12/10 05:19:36;;;;;;;16.00;4.17;;;;;;;8.64;100.00;100178.84;5095689;28;20278;-37
2023/12/10 05:22:01;;;;;;;17.17;3.87;;;;;;;8.68;100.00;100181.88;5094887;28;20031;-37
2023/12/10 05:24:27;;;;;;;16.83;4.37;;;;;;;8.68;100.00;100187.28;5095127;28;20069;-37
2023/12/10 05:26:52;;;;;;;11.68;3.53;;;;;;;8.63;100.00;100189.84;5094746;28;20028;-37
2023/12/10 05:29:17;;;;;;;16.98;3.97;;;;;;;8.62;100.00;100188.22;5094649;28;20020;-37
2023/12/10 05:31:43;;;;;;;15.90;3.55;;;;;;;8.66;100.00;100200.19;5095027;28;20035;-37
2023/12/10 05:34:08;;;;;;;13.17;3.80;;;;;;;8.67;100.00;100207.19;5094945;28;20471;-37
2023/12/10 05:36:33;;;;;;;15.70;3.60;;;;;;;8.66;100.00;100224.44;5095396;28;20027;-37
2023/12/10 05:38:59;;;;;;;16.33;3.80;;;;;;;8.67;100.00;100212.59;5094863;28;20105;-37
2023/12/10 05:41:24;;;;;;;12.97;3.37;;;;;;;8.70;100.00;100218.34;5095063;28;20285;-37
2023/12/10 05:43:50;;;;;;;15.77;4.50;;;;;;;8.67;100.00;100226.88;5094728;28;20468;-37
2023/12/10 05:46:15;;;;;;;12.40;3.50;;;;;;;8.64;100.00;100224.66;5094703;28;20148;-37
2023/12/10 05:48:40;;;;;;;11.03;3.07;;;;;;;8.48;100.00;100201.91;5094690;28;20032;-37
2023/12/10 05:51:06;;;;;;;14.10;3.80;;;;;;;8.63;100.00;100231.09;5094927;28;20452;-37
2023/12/10 05:53:31;;;;;;;19.85;3.97;;;;;;;8.68;100.00;100219.63;5095102;28;20057;-37
2023/12/10 05:55:56;;;;;;;15.37;3.77;;;;;;;8.55;100.00;100220.69;5094530;28;20052;-37
2023/12/10 05:58:22;;;;;;;13.47;3.33;;;;;;;8.60;100.00;100231.56;5076357;28;20274;-37
2023/12/10 06:00:47;;;;;;;10.47;3.17;;;;;;;8.69;100.00;100232.06;5094518;28;20070;-37
2023/12/10 06:03:13;;;;;;;15.60;4.00;;;;;;;8.71;100.00;100243.41;5094435;28;20411;-37
2023/12/10 06:05:38;;;;;;;13.03;3.90;;;;;;;8.74;100.00;100272.63;5094484;28;20051;-37
2023/12/10 06:08:04;;;;;;;16.83;4.05;;;;;;;8.63;100.00;100257.22;5094276;28;20077;-37
2023/12/10 06:10:29;;;;;;;11.13;3.80;;;;;;;8.68;100.00;100284.31;5094840;28;20402;-37
2023/12/10 06:12:54;;;;;;;14.77;3.10;;;;;;;8.67;100.00;100288.06;5094718;28;20024;-37
2023/12/10 06:15:20;;;;;;;13.67;3.20;;;;;;;8.65;100.00;100292.88;5094729;28;20374;-37
2023/12/10 06:17:45;;;;;;;15.33;3.83;;;;;;;8.66;100.00;100297.22;5094452;28;20323;-37
2023/12/10 06:20:11;;;;;;;17.88;4.20;;;;;;;8.58;100.00;100273.28;5094952;28;20495;-37
2023/12/10 06:22:36;;;;;;;18.48;4.13;;;;;;;8.64;100.00;100283.16;5094636;28;20360;-37
2023/12/10 06:25:02;;;;;;;13.50;3.00;;;;;;;8.62;100.00;100296.84;5093927;28;20036;-37
2023/12/10 06:27:27;;;;;;;14.32;3.38;;;;;;;8.62;100.00;100313.00;5094587;28;20067;-37
2023/12/10 06:29:52;;;;;;;14.23;3.80;;;;;;;8.61;100.00;100314.06;5093943;28;20426;-37
2023/12/10 06:32:18;;;;;;;11.93;3.97;;;;;;;8.62;100.00;100325.66;5094216;28;20032;-37
2023/12/10 06:34:44;;;;;;;16.60;4.80;;;;;;;8.59;100.00;100337.75;5093527;28;20491;-37
2023/12/10 06:37:09;;;;;;;13.23;3.67;;;;;;;8.62;100.00;100336.44;5093701;28;20036;-37
2023/12/10 06:39:34;;;;;;;13.13;3.87;;;;;;;8.52;100.00;100335.13;5093757;28;20028;-37
2023/12/10 06:42:00;;;;;;;14.37;4.17;;;;;;;8.55;100.00;100346.53;5094065;28;20258;-37
2023/12/10 06:44:25;;;;;;;12.07;3.90;;;;;;;8.60;100.00;100358.25;5093793;28;20474;-37
2023/12/10 06:46:51;;;;;;;16.73;3.43;;;;;;;8.59;100.00;100370.09;5093679;28;20020;-37
2023/12/10 06:49:17;;;;;;;15.70;4.18;;;;;;;8.61;100.00;100380.63;5093898;28;20281;-37
2023/12/10 06:51:42;;;;;;;11.68;3.50;;;;;;;8.62;100.00;100383.09;5093664;28;20028;-37
2023/12/10 06:54:09;;;;;;;12.52;3.78;;;;;;;8.61;100.00;100386.03;5093644;28;20028;-37
2023/12/10 06:56:39;;;;;;;14.27;3.45;;;;;;;8.57;100.00;100377.56;5093661;28;20624;-37
2023/12/10 06:59:07;;;;;;;15.73;3.95;;;;;;;8.57;100.00;100369.47;5093245;28;20052;-37
2023/12/10 07:01:39;;;;;;;12.63;3.13;;;;;;;8.59;100.00;100388.09;5093500;28;20479;-37
2023/12/10 07:04:08;;;;;;;16.00;3.80;;;;;;;8.56;100.00;100393.97;5093148;28;20020;-37
2023/12/10 07:06:34;;;;;;;15.30;4.38;;;;;;;8.67;100.00;100401.28;5093237;28;20020;-37
2023/12/10 07:09:00;;;;;;;14.20;4.95;;;;;;;8.52;100.00;100390.91;5083718;28;20472;-37
2023/12/10 07:11:25;;;;;;;13.15;3.20;;;;;;;8.64;100.00;100415.22;5093986;28;20111;-37
2023/12/10 07:13:53;;;;;;;12.57;3.67;;;;;;;8.58;100.00;100408.03;5093495;28;20035;-37
2023/12/10 07:16:21;;;;;;;14.27;3.90;;;;;;;8.59;100.00;100405.13;5093348;28;20016;-37
2023/12/10 07:18:46;;;;;;;11.65;3.60;;;;;;;8.62;100.00;100415.44;5097107;28;20103;-37
2023/12/10 07:21:12;;;;;;;15.17;3.87;;;;;;;8.63;100.00;100421.63;5097448;28;20437;-37
2023/12/10 07:23:37;;;;;;;12.00;3.87;;;;;;;8.60;100.00;100406.75;5097167;28;20024;-37
2023/12/10 07:26:04;;;;;;;14.10;3.97;;;;;;;8.64;100.00;100428.69;5097351;28;20027;-37
2023/12/10 07:28:29;;;;;;;14.43;3.40;;;;;;;8.66;100.00;100434.66;5097228;28;20113;-37
2023/12/10 07:30:55;;;;;;;14.80;3.77;;;;;;;8.56;100.00;100405.56;5097252;28;20028;-37
2023/12/10 07:33:20;;;;;;;16.70;4.27;;;;;;;8.65;100.00;100443.81;5097602;28;20054;-37
2023/12/10 07:35:45;;;;;;;14.70;3.53;;;;;;;8.67;100.00;100450.59;5097123;28;20285;-37
2023/12/10 07:38:11;;;;;;;12.50;3.33;;;;;;;8.67;100.00;100465.97;5097171;28;20480;-36
2023/12/10 07:40:37;;;;;;;13.68;3.22;;;;;;;8.65;100.00;100471.59;5097432;28;20254;-37
2023/12/10 07:43:02;;;;;;;14.45;3.00;;;;;;;8.63;100.00;100475.53;5097135;28;20474;-37
2023/12/10 07:45:28;;;;;;;14.75;3.67;;;;;;;8.67;100.00;100487.53;5097532;28;20051;-36
2023/12/10 07:47:53;;;;;;;15.30;3.50;;;;;;;8.65;100.00;100501.25;5097001;28;20054;-36
2023/12/10 07:50:18;;;;;;;11.65;3.55;;;;;;;8.65;100.00;100503.13;5097736;28;20112;-36
2023/12/10 07:52:44;;;;;;;14.97;3.53;;;;;;;8.68;100.00;100503.47;5097663;28;20035;-36
2023/12/10 07:55:09;;;;;;;13.50;3.28;;;;;;;8.66;100.00;100508.28;5097288;28;20111;-36
2023/12/10 07:57:35;;;;;;;14.70;3.27;;;;;;;8.57;100.00;100508.81;5097037;28;20040;-36
2023/12/10 08:00:00;;;;;;;14.88;3.72;;;;;;;8.64;100.00;100520.34;5096722;28;20057;-36
2023/12/10 08:02:25;;;;;;;12.40;3.30;;;;;;;8.65;100.00;100522.81;5079146;28;20489;-36
2023/12/10 08:04:51;;;;;;;14.17;3.33;;;;;;;8.65;100.00;100521.97;5096575;28;20349;-36
2023/12/10 08:07:16;;;;;;;13.55;3.15;;;;;;;8.63;100.00;100521.38;5096627;28;20028;-36
2023/12/10 08:09:42;;;;;;;11.60;3.07;;;;;;;8.63;100.00;100526.75;5096496;28;20110;-36
2023/12/10 08:12:07;;;;;;;15.30;3.37;;;;;;;8.61;100.00;100531.56;5096910;28;20062;-36
2023/12/10 08:14:33;;;;;;;14.63;3.25;;;;;;;8.42;100.00;100510.00;5096077;28;20264;-37
2023/12/10 08:16:59;;;;;;;14.32;4.20;;;;;;;8.62;100.00;100538.59;5096401;28;20024;-36
2023/12/10 08:19:25;;;;;;;12.48;3.22;;;;;;;8.58;100.00;100545.47;5096339;28;20483;-36
2023/12/10 08:21:50;;;;;;;14.33;3.30;;;;;;;8.60;100.00;100560.41;5096441;28;20020;-36
2023/12/10 08:24:17;;;;;;;21.05;4.25;;;;;;;8.59;100.00;100552.50;5096474;28;20028;-37
2023/12/10 08:26:42;;;;;;;16.20;3.35;;;;;;;8.59;100.00;100556.06;5096786;28;20054;-36
2023/12/10 08:29:07;;;;;;;11.87;3.90;;;;;;;8.61;100.00;100569.31;5096249;28;20483;-36
2023/12/10 08:31:33;;;;;;;17.37;4.00;;;;;;;8.61;100.00;100575.50;5096155;28;20026;-36
2023/12/10 08:33:58;;;;;;;11.03;2.60;;;;;;;8.61;100.00;100577.38;5095751;28;20077;-36
2023/12/10 08:36:24;;;;;;;13.50;3.77;;;;;;;8.56;100.00;100579.94;5096302;28;20038;-36
2023/12/10 08:38:49;;;;;;;10.05;3.20;;;;;;;8.58;100.00;100589.44;5096524;28;20036;-37
2023/12/10 08:41:14;;;;;;;11.57;3.00;;;;;;;8.54;100.00;100590.94;5095648;28;20032;-37
2023/12/10 08:43:40;;;;;;;19.03;4.70;;;;;;;8.57;100.00;100593.19;5096344;28;20031;-36
2023/12/10 08:46:08;;;;;;;14.57;3.47;;;;;;;8.49;100.00;100578.13;5096291;28;20024;-36
2023/12/10 08:48:33;;;;;;;14.70;3.38;;;;;;;8.50;100.00;100584.34;5095723;28;20274;-37
2023/12/10 08:50:58;;;;;;;15.57;3.17;;;;;;;8.58;100.00;100589.44;5095424;28;20035;-37
2023/12/10 08:53:24;;;;;;;16.10;4.10;;;;;;;8.58;100.00;100604.78;5095598;28;20028;-36
2023/12/10 08:55:49;;;;;;;15.83;3.77;;;;;;;8.60;100.00;100605.41;5096103;28;20621;-37
2023/12/10 08:58:15;;;;;;;15.47;3.97;;;;;;;8.58;100.00;100607.47;5095549;28;20024;-36
2023/12/10 09:00:41;;;;;;;12.85;3.40;;;;;;;8.60;100.00;100616.19;5096119;28;20297;-36
2023/12/10 09:03:06;;;;;;;17.83;4.30;;;;;;;8.60;100.00;100610.78;5095807;28;20027;-36
2023/12/10 09:05:32;;;;;;;15.32;3.53;;;;;;;8.60;100.00;100622.38;5095777;28;20059;-36
2023/12/10 09:07:58;;;;;;;12.70;3.70;;;;;;;8.59;100.00;100611.81;5095344;28;20452;-36
2023/12/10 09:10:23;;;;;;;13.27;3.30;;;;;;;8.61;100.00;100623.22;5095854;28;20024;-36
2023/12/10 09:12:48;;;;;;;13.80;3.55;;;;;;;8.57;100.00;100612.03;5095783;28;20090;-36
2023/12/10 09:15:14;;;;;;;14.23;3.60;;;;;;;8.58;100.00;100623.66;5095100;28;20460;-36
2023/12/10 09:17:39;;;;;;;16.23;4.13;;;;;;;8.57;100.00;100616.63;5095359;28;20278;-36
2023/12/10 09:20:06;;;;;;;16.50;3.83;;;;;;;8.56;100.00;100623.88;5095438;28;20107;-36
2023/12/10 09:22:32;;;;;;;13.05;3.55;;;;;;;8.48;100.00;100614.19;5095268;28;20051;-36
2023/12/10 09:24:57;;;;;;;13.80;3.23;;;;;;;8.53;100.00;100629.69;5095244;28;20024;-36
2023/12/10 09:27:23;;;;;;;11.50;3.40;;;;;;;8.44;100.00;100612.16;5095824;28;20270;-36
2023/12/10 09:29:49;;;;;;;16.67;4.45;;;;;;;8.55;100.00;100624.09;5094968;28;20021;-36
2023/12/10 09:32:16;;;;;;;13.55;3.65;;;;;;;8.48;100.00;100618.75;5094923;28;20028;-36
2023/12/10 09:34:42;;;;;;;15.43;3.60;;;;;;;8.56;100.00;100626.56;5095100;28;20122;-36
2023/12/10 09:37:10;;;;;;;15.50;3.35;;;;;;;8.43;100.00;100621.31;5095092;28;20508;-36
2023/12/10 09:39:36;;;;;;;15.27;4.13;;;;;;;8.55;100.00;100634.88;5093982;28;20028;-37
2023/12/10 09:42:02;;;;;;;13.55;3.40;;;;;;;8.58;100.00;100639.81;5095152;28;20020;-37
2023/12/10 09:44:28;;;;;;;14.13;3.38;;;;;;;8.58;100.00;100629.03;5095132;28;20024;-36
2023/12/10 09:46:53;;;;;;;13.10;3.43;;;;;;;8.57;100.00;100630.91;5094950;28;20028;-37
2023/12/10 09:49:21;;;;;;;14.70;3.57;;;;;;;8.62;100.00;100630.25;5094891;28;20309;-37
2023/12/10 09:51:46;;;;;;;17.58;3.85;;;;;;;8.63;100.00;100621.09;5094607;28;20456;-36
2023/12/10 09:54:12;;;;;;;14.00;3.50;;;;;;;8.68;100.00;100629.34;5094255;28;20036;-37
2023/12/10 09:56:38;;;;;;;14.60;3.72;;;;;;;8.69;100.00;100628.31;5094851;28;20058;-37
2023/12/10 09:59:04;;;;;;;19.80;4.10;;;;;;;8.71;100.00;100628.91;5094341;28;20024;-36
2023/12/10 10:01:29;;;;;;;15.40;3.87;;;;;;;8.74;100.00;100628.47;5094689;28;20047;-37
2023/12/10 10:03:55;;;;;;;16.57;4.40;;;;;;;8.75;100.00;100627.41;5094569;28;20107;-37
2023/12/10 10:06:21;;;;;;;14.85;3.00;;;;;;;8.77;100.00;100633.38;5094623;28;20377;-37
2023/12/10 10:08:46;;;;;;;16.38;3.75;;;;;;;8.71;100.00;100620.81;5094492;28;20028;-37
2023/12/10 10:11:11;;;;;;;19.97;5.00;;;;;;;8.78;100.00;100637.72;5094151;28;20469;-37
2023/12/10 10:13:37;;;;;;;19.87;4.03;;;;;;;8.78;100.00;100637.72;5093783;28;20039;-37
2023/12/10 10:16:12;;;;;;;13.32;3.47;;;;;;;8.81;100.00;100639.16;5094034;28;20034;-37
2023/12/10 10:18:41;;;;;;;17.33;4.20;;;;;;;8.88;100.00;100635.38;5093988;28;20024;-37
2023/12/10 10:21:07;;;;;;;14.07;3.97;;;;;;;8.92;100.00;100619.53;5094338;28;20348;-37
2023/12/10 10:23:32;;;;;;;17.00;3.90;;;;;;;8.94;100.00;100615.56;5094211;28;20024;-37
2023/12/10 10:25:57;;;;;;;13.97;3.70;;;;;;;8.98;100.00;100619.47;5094586;28;20380;-37
2023/12/10 10:28:23;;;;;;;13.50;3.70;;;;;;;9.03;100.00;100616.09;5094206;28;20032;-37
2023/12/10 10:30:48;;;;;;;17.40;3.70;;;;;;;9.07;100.00;100611.06;5093908;28;20345;-37
2023/12/10 10:33:15;;;;;;;13.43;3.25;;;;;;;9.11;100.00;100621.16;5093859;28;20884;-37
2023/12/10 10:35:42;;;;;;;13.15;3.55;;;;;;;9.07;100.00;100616.44;5094038;28;20020;-38
2023/12/10 10:38:07;;;;;;;;;;;;;;;9.14;100.00;100628.00;5094583;28;20031;-37
2023/12/10 10:40:32;;;;;;;18.48;5.05;;;;;;;9.12;100.00;100636.28;5094573;28;19908;-37
2023/12/10 10:42:58;;;;;;;11.27;3.60;;;;;;;9.15;100.00;100619.66;5094301;28;20055;-37
2023/12/10 10:45:23;;;;;;;14.02;3.38;;;;;;;9.13;100.00;100611.00;5094019;28;20070;-37
2023/12/10 10:47:49;;;;;;;13.37;3.47;;;;;;;9.30;100.00;100635.47;5093908;28;20028;-37
2023/12/10 10:50:14;;;;;;;15.32;3.65;;;;;;;9.34;100.00;100627.75;5093448;28;20293;-37
2023/12/10 10:52:42;;;;;;;14.70;3.90;;;;;;;9.41;100.00;100625.75;5093279;28;20480;-37
2023/12/10 10:55:08;;;;;;;11.18;2.90;;;;;;;9.46;100.00;100632.13;5093182;28;20842;-37
2023/12/10 10:57:35;;;;;;;10.07;2.97;;;;;;;9.53;100.00;100629.34;5094103;28;20380;-37
2023/12/10 11:00:18;;;;;;;9.48;2.97;;;;;;;9.62;100.00;100624.44;5093434;28;20074;-37
2023/12/10 11:02:52;;;;;;;17.98;3.22;;;;;;;9.62;100.00;100630.69;5093858;28;20024;-37
2023/12/10 11:05:29;;;;;;;13.68;3.88;;;;;;;9.65;100.00;100605.91;5093520;28;20038;-37
2023/12/10 11:07:55;;;;;;;11.45;2.92;;;;;;;9.63;100.00;100601.78;5093998;28;20461;-37
2023/12/10 11:10:21;;;;;;;10.77;3.13;;;;;;;9.71;100.00;100609.53;5093780;28;20059;-37
2023/12/10 11:12:48;;;;;;;;;;;;;;;9.72;100.00;100611.22;5094466;28;20035;-37
2023/12/10 11:15:17;;;;;;;11.75;3.08;;;;;;;9.65;100.00;100615.88;5093377;28;19908;-37